createdAt,value
2022-09-16T00:05:14.656Z,13.4
2022-09-16T00:10:54.802Z,13.4
2022-09-16T00:16:36.731Z,13.5
2022-09-16T00:22:19.515Z,13.4
2022-09-16T00:28:00.644Z,13.4
2022-09-16T00:33:45.505Z,13.3
2022-09-16T00:39:30.491Z,13.2
2022-09-16T00:45:13.296Z,13.2
2022-09-16T00:50:55.962Z,13.2
2022-09-16T00:56:37.504Z,13.1
2022-09-16T01:02:27.130Z,13.2
2022-09-16T01:08:13.531Z,13.1
2022-09-16T01:13:54.444Z,13.2
2022-09-16T01:30:14.710Z,12.8
2022-09-16T01:35:55.513Z,12.8
2022-09-16T01:41:35.915Z,12.7
2022-09-16T01:47:19.063Z,12.6
2022-09-16T01:52:59.886Z,12.6
2022-09-16T01:58:40.688Z,12.6
2022-09-16T02:04:20.840Z,12.6
2022-09-16T02:10:01.567Z,12.5
2022-09-16T02:15:45.011Z,12.6
2022-09-16T02:21:26.160Z,12.7
2022-09-16T02:27:06.825Z,12.8
2022-09-16T02:32:47.574Z,12.9
2022-09-16T02:38:28.008Z,12.8
2022-09-16T02:44:08.161Z,12.8
2022-09-16T02:49:51.005Z,12.7
2022-09-16T02:55:30.934Z,12.5
2022-09-16T03:01:11.462Z,12.4
2022-09-16T03:06:51.453Z,12.4
2022-09-16T03:12:31.702Z,12.3
2022-09-16T03:18:12.179Z,12.4
2022-09-16T03:23:52.677Z,12.5
2022-09-16T03:29:34.081Z,12.4
2022-09-16T03:35:19.514Z,12.4
2022-09-16T03:40:59.683Z,12.4
2022-09-16T03:46:39.756Z,12.2
2022-09-16T03:52:21.244Z,12
2022-09-16T03:58:01.673Z,11.9
2022-09-16T04:03:44.762Z,11.8
2022-09-16T04:09:25.222Z,11.8
2022-09-16T04:15:05.611Z,11.8
2022-09-16T04:20:46.034Z,12
2022-09-16T04:26:27.940Z,12.1
2022-09-16T04:32:11.646Z,12.2
2022-09-16T04:37:51.729Z,12.4
2022-09-16T04:43:32.201Z,12.4
2022-09-16T04:49:13.119Z,12.4
2022-09-16T04:54:53.757Z,12.5
2022-09-16T05:00:34.058Z,12.3
2022-09-16T05:06:17.127Z,12.3
2022-09-16T05:12:01.423Z,12.1
2022-09-16T05:17:51.642Z,12.1
2022-09-16T05:23:32.457Z,12.2
2022-09-16T05:29:12.727Z,12.1
2022-09-16T05:34:54.439Z,12.2
2022-09-16T05:40:34.663Z,12.1
2022-09-16T05:46:17.475Z,12.1
2022-09-16T05:51:59.275Z,12.3
2022-09-16T05:57:39.596Z,12.4
2022-09-16T06:03:22.605Z,12.7
2022-09-16T06:09:04.202Z,12.7
2022-09-16T06:14:44.262Z,12.8
2022-09-16T06:20:24.918Z,13
2022-09-16T06:26:06.271Z,12.9
2022-09-16T06:31:46.635Z,13.1
2022-09-16T06:37:27.323Z,13.1
2022-09-16T06:43:08.869Z,13.8
2022-09-16T06:48:51.871Z,15
2022-09-16T06:54:31.527Z,13.8
2022-09-16T07:00:13.370Z,13.8
2022-09-16T07:05:58.887Z,13.6
2022-09-16T07:11:39.736Z,13.6
2022-09-16T07:17:21.075Z,14.1
2022-09-16T07:23:01.203Z,14.1
2022-09-16T07:28:45.029Z,14.3
2022-09-16T07:34:27.960Z,14.8
2022-09-16T07:40:08.058Z,14.4
2022-09-16T07:45:51.465Z,13.8
2022-09-16T07:51:33.251Z,14
2022-09-16T07:57:13.544Z,14.1
2022-09-16T08:02:53.785Z,14.1
2022-09-16T08:08:35.824Z,14.4
2022-09-16T08:14:16.544Z,14.3
2022-09-16T08:19:57.020Z,14.4
2022-09-16T08:25:38.313Z,14.7
2022-09-16T08:31:19.007Z,15.8
2022-09-16T08:37:00.601Z,15.7
2022-09-16T08:42:42.305Z,16.9
2022-09-16T08:48:26.375Z,16.3
2022-09-16T08:54:09.350Z,15.9
2022-09-16T08:59:50.983Z,15.8
2022-09-16T09:05:31.158Z,15.8
2022-09-16T09:11:11.618Z,16.4
2022-09-16T09:16:53.038Z,15.6
2022-09-16T09:22:35.146Z,16.5
2022-09-16T09:28:16.215Z,16.8
2022-09-16T09:33:59.629Z,18.7
2022-09-16T09:44:42.091Z,18.2
2022-09-16T09:50:24.177Z,17.6
2022-09-16T09:56:04.979Z,16.6
2022-09-16T10:01:45.399Z,17.5
2022-09-16T10:07:30.158Z,17.8
2022-09-16T10:13:23.945Z,19.3
2022-09-16T10:19:04.751Z,20.6
2022-09-16T10:24:48.637Z,18.1
2022-09-16T10:30:44.594Z,18.3
2022-09-16T10:36:25.210Z,18.3
2022-09-16T10:42:07.870Z,19.5
2022-09-16T10:47:51.567Z,20.1
2022-09-16T10:53:39.511Z,19.8
2022-09-16T10:59:26.509Z,19.2
2022-09-16T11:05:08.566Z,16.5
2022-09-16T11:10:49.541Z,15.4
2022-09-16T11:16:31.794Z,14.8
2022-09-16T11:22:12.997Z,14.6
2022-09-16T11:27:53.407Z,14.6
2022-09-16T11:33:34.585Z,14.6
2022-09-16T11:39:14.642Z,13.6
2022-09-16T11:44:55.129Z,12.4
2022-09-16T11:50:36.575Z,12.3
2022-09-16T11:56:19.565Z,15.1
2022-09-16T12:02:06.973Z,15.6
2022-09-16T12:07:49.338Z,15.1
2022-09-16T12:13:33.508Z,15.8
2022-09-16T12:19:17.730Z,17
2022-09-16T12:24:58.791Z,15.8
2022-09-16T12:30:37.709Z,13.1
2022-09-16T12:36:18.994Z,12.2
2022-09-16T12:42:05.083Z,11.7
2022-09-16T12:47:45.546Z,11.4
2022-09-16T12:53:25.822Z,11
2022-09-16T12:59:07.602Z,11
2022-09-16T13:04:51.149Z,11.8
2022-09-16T13:10:54.857Z,13.4
2022-09-16T13:18:27.439Z,16.7
2022-09-16T13:24:14.743Z,15.6
2022-09-16T13:29:58.008Z,15.4
2022-09-16T13:35:39.613Z,16.1
2022-09-16T13:41:20.405Z,17.3
2022-09-16T13:47:01.545Z,16.9
2022-09-16T13:52:43.236Z,15.9
2022-09-16T13:58:23.466Z,15.5
2022-09-16T14:04:07.168Z,16.6
2022-09-16T14:09:51.549Z,15.4
2022-09-16T14:15:35.142Z,14.9
2022-09-16T14:21:15.966Z,14.7
2022-09-16T14:26:57.990Z,15.7
2022-09-16T14:32:37.747Z,15.1
2022-09-16T14:38:41.543Z,15.9
2022-09-16T14:44:27.897Z,16.6
2022-09-16T14:50:08.227Z,16.6
2022-09-16T14:55:48.449Z,15.9
2022-09-16T15:01:29.418Z,14.4
2022-09-16T15:07:12.404Z,12.2
2022-09-16T15:12:52.792Z,11.4
2022-09-16T15:18:34.239Z,11
2022-09-16T15:24:14.596Z,11
2022-09-16T15:29:55.355Z,11.6
2022-09-16T15:35:37.007Z,12.3
2022-09-16T15:41:17.202Z,12.3
2022-09-16T15:46:57.955Z,12
2022-09-16T15:52:41.099Z,11.9
2022-09-16T15:58:21.573Z,11.9
2022-09-16T16:04:02.288Z,11.8
2022-09-16T16:09:52.506Z,11.6
2022-09-16T16:15:32.693Z,11.4
2022-09-16T16:21:16.430Z,11.2
2022-09-16T16:26:58.266Z,11.1
2022-09-16T16:32:38.484Z,11.1
2022-09-16T16:38:21.699Z,11.1
2022-09-16T16:44:02.800Z,11.1
2022-09-16T16:49:43.717Z,11.2
2022-09-16T16:55:31.961Z,11.3
2022-09-16T17:01:13.582Z,11.4
2022-09-16T17:07:14.744Z,11.4
2022-09-16T17:13:09.667Z,11.3
2022-09-16T17:18:51.262Z,11.1
2022-09-16T17:30:04.013Z,10.8
2022-09-16T17:35:45.258Z,10.7
2022-09-16T17:41:31.746Z,10.7
2022-09-16T17:47:15.568Z,10.6
2022-09-16T17:52:57.160Z,10.6
2022-09-16T17:58:37.912Z,10.5
2022-09-16T18:04:18.023Z,10.4
2022-09-16T18:09:59.228Z,10.4
2022-09-16T18:15:39.617Z,10.3
2022-09-16T18:21:20.063Z,10.3
2022-09-16T18:27:02.464Z,10.3
2022-09-16T18:32:45.975Z,10.2
2022-09-16T18:38:30.489Z,10.2
2022-09-16T18:44:12.471Z,10.2
2022-09-16T18:49:52.945Z,10.1
2022-09-16T18:55:36.061Z,10.1
2022-09-16T19:01:26.463Z,10.1
2022-09-16T19:07:11.200Z,10.1
2022-09-16T19:12:54.061Z,9.9
2022-09-16T19:18:35.053Z,9.9
2022-09-16T19:24:15.591Z,9.9
2022-09-16T19:29:56.048Z,9.9
2022-09-16T19:35:37.839Z,9.9
2022-09-16T19:41:18.567Z,9.8
2022-09-16T19:46:58.948Z,9.7
2022-09-16T19:52:40.092Z,9.7
2022-09-16T19:58:20.244Z,9.7
2022-09-16T20:04:00.597Z,9.6
2022-09-16T20:09:41.829Z,9.7
2022-09-16T20:15:21.854Z,9.6
2022-09-16T20:21:04.517Z,9.6
2022-09-16T20:26:49.178Z,9.6
2022-09-16T20:32:29.525Z,9.6
2022-09-16T20:38:09.607Z,9.6
2022-09-16T20:43:54.430Z,9.7
2022-09-16T20:49:34.569Z,9.6
2022-09-16T20:55:15.572Z,9.6
2022-09-16T21:01:03.387Z,9.6
2022-09-16T21:06:44.788Z,9.5
2022-09-16T21:12:26.806Z,9.4
2022-09-16T21:18:14.724Z,9.5
2022-09-16T21:23:55.264Z,9.6
2022-09-16T21:29:35.587Z,9.6
2022-09-16T21:35:16.647Z,9.5
2022-09-16T21:40:59.292Z,9.5
2022-09-16T21:46:39.709Z,9.4
2022-09-16T21:52:22.275Z,9.5
2022-09-16T21:58:02.819Z,9.5
2022-09-16T22:03:43.391Z,9.4
2022-09-16T22:09:24.434Z,9.4
2022-09-16T22:15:05.076Z,9.3
2022-09-16T22:20:45.431Z,9.3
2022-09-16T22:26:26.897Z,9.3
2022-09-16T22:32:10.481Z,9.3
2022-09-16T22:37:50.776Z,9.3
2022-09-16T22:43:32.056Z,9.3
2022-09-16T22:49:12.191Z,9.3
2022-09-16T22:54:52.555Z,9.3
2022-09-16T23:00:37.319Z,9.4
2022-09-16T23:06:20.796Z,9.3
2022-09-16T23:12:01.168Z,9.2
2022-09-16T23:17:42.346Z,9.2
2022-09-16T23:23:22.311Z,9.2
2022-09-16T23:29:02.720Z,9.3
2022-09-16T23:34:44.009Z,9.4
2022-09-16T23:40:24.162Z,9.4
2022-09-16T23:46:04.925Z,9.4
2022-09-16T23:51:46.846Z,9.4
2022-09-16T23:57:27.302Z,9.5
